Time;durP1;ratioP1;P1;durP2;ratioP2;P2;SDS_P1;SDS_P2;PMS_P1;PMS_P2;Temp;Humidity;BMP_temperature;BMP_pressure;BME280_temperature;BME280_humidity;BME280_pressure;Samples;Min_cycle;Max_cycle;Signal;HPM_P1;HPM_P2
2022/11/27 00:01:59;;;;;;;20.77;19.58;;;;;;;10.32;62.98;102373.44;4975658;28;20031;-70
2022/11/27 00:04:24;;;;;;;19.33;18.05;;;;;;;10.33;63.57;102374.25;4974452;28;20034;-71
2022/11/27 00:06:50;;;;;;;19.08;17.70;;;;;;;10.32;63.65;102369.91;4990614;28;20090;-71
2022/11/27 00:09:15;;;;;;;18.92;17.73;;;;;;;10.31;63.51;102369.06;4975792;28;20043;-74
2022/11/27 00:11:41;;;;;;;20.65;19.00;;;;;;;10.31;63.48;102365.53;4975420;28;20058;-72
2022/11/27 00:14:11;;;;;;;17.83;16.73;;;;;;;10.31;63.78;102354.75;4973841;28;20035;-70
2022/11/27 00:16:37;;;;;;;19.85;18.17;;;;;;;10.30;63.65;102355.75;4975082;28;20398;-71
2022/11/27 00:19:02;;;;;;;19.13;17.70;;;;;;;10.29;63.55;102352.22;4974172;28;20039;-76
2022/11/27 00:21:30;;;;;;;19.85;18.40;;;;;;;10.29;63.65;102348.69;4975357;28;20375;-72
2022/11/27 00:23:57;;;;;;;18.13;16.65;;;;;;;10.28;63.78;102350.56;4975343;28;20031;-71
2022/11/27 00:26:22;;;;;;;18.55;17.35;;;;;;;10.28;63.41;102339.78;4975325;28;20038;-72
2022/11/27 00:28:48;;;;;;;20.52;18.77;;;;;;;10.27;63.44;102332.66;4973890;28;20027;-71
2022/11/27 00:31:22;;;;;;;19.67;18.30;;;;;;;10.26;63.63;102336.41;4975152;28;20058;-72
2022/11/27 00:33:47;;;;;;;18.48;17.38;;;;;;;10.26;63.51;102339.09;4975679;28;20037;-72
2022/11/27 00:36:13;;;;;;;18.80;17.38;;;;;;;10.26;63.67;102324.78;4975090;28;20027;-72
2022/11/27 00:38:39;;;;;;;19.45;18.05;;;;;;;10.25;63.49;102321.22;4974736;28;20450;-72
2022/11/27 00:41:10;;;;;;;19.15;17.70;;;;;;;10.24;63.49;102333.06;4975059;28;20038;-73
2022/11/27 00:43:36;;;;;;;19.35;18.05;;;;;;;10.24;63.45;102324.13;4974956;28;20023;-70
2022/11/27 00:46:01;;;;;;;18.38;17.23;;;;;;;10.23;63.54;102317.91;4989370;28;20050;-72
2022/11/27 00:48:27;;;;;;;18.30;16.75;;;;;;;10.22;63.61;102315.41;4990293;28;20042;-79
2022/11/27 00:51:01;;;;;;;18.80;17.60;;;;;;;10.21;63.38;102306.47;4973685;28;20054;-74
2022/11/27 00:53:26;;;;;;;17.95;16.80;;;;;;;10.21;63.47;102311.88;4974945;28;20026;-70
2022/11/27 00:55:55;;;;;;;17.73;16.42;;;;;;;10.20;63.35;102302.09;4975000;28;20034;-72
2022/11/27 00:58:21;;;;;;;18.20;17.10;;;;;;;10.20;63.42;102299.38;4974746;28;20050;-71
2022/11/27 01:00:57;;;;;;;19.55;18.05;;;;;;;10.19;63.31;102295.03;4974507;28;20034;-71
2022/11/27 01:03:23;;;;;;;18.23;17.13;;;;;;;10.18;63.65;102282.56;4975290;28;20037;-72
2022/11/27 01:05:49;;;;;;;17.45;16.02;;;;;;;10.18;63.34;102285.28;4974871;28;20108;-76
2022/11/27 01:08:14;;;;;;;17.38;16.38;;;;;;;10.17;63.44;102287.13;4974585;28;20484;-72
2022/11/27 01:10:56;;;;;;;18.92;17.52;;;;;;;10.17;63.72;102289.00;4974641;28;20039;-71
2022/11/27 01:13:24;;;;;;;18.50;17.38;;;;;;;10.16;63.32;102290.03;4989944;28;20431;-72
2022/11/27 01:16:05;;;;;;;18.75;17.52;;;;;;;10.15;63.51;102291.91;4973304;28;20078;-72
2022/11/27 01:18:31;;;;;;;17.75;16.23;;;;;;;10.14;63.40;102290.22;4989755;28;20037;-72
2022/11/27 01:20:57;;;;;;;17.30;16.20;;;;;;;10.13;63.54;102285.88;4974603;28;20081;-72
2022/11/27 01:23:23;;;;;;;18.63;17.33;;;;;;;10.12;63.41;102270.69;4974546;28;20121;-73
2022/11/27 01:25:49;;;;;;;20.45;19.10;;;;;;;10.11;63.55;102269.03;4974712;28;20610;-70
2022/11/27 01:28:15;;;;;;;18.83;17.38;;;;;;;10.11;63.48;102269.03;4978717;28;20049;-70
2022/11/27 01:30:41;;;;;;;18.95;17.70;;;;;;;10.11;63.47;102260.13;4978381;28;20490;-71
2022/11/27 01:33:07;;;;;;;18.55;17.25;;;;;;;10.10;63.53;102261.94;4978421;28;20034;-72
2022/11/27 01:35:32;;;;;;;17.73;16.52;;;;;;;10.10;63.57;102264.66;4993801;28;20027;-71
2022/11/27 01:37:57;;;;;;;19.35;17.98;;;;;;;10.09;63.46;102257.59;4978391;28;20448;-71
2022/11/27 01:40:23;;;;;;;18.33;17.13;;;;;;;10.09;63.20;102256.78;4993623;28;20432;-71
2022/11/27 01:42:49;;;;;;;20.10;18.73;;;;;;;10.08;63.45;102260.50;4977870;28;20046;-72
2022/11/27 01:45:16;;;;;;;18.00;17.00;;;;;;;10.07;63.25;102262.38;4977899;28;20051;-70
2022/11/27 01:47:51;;;;;;;18.30;17.00;;;;;;;10.07;63.30;102266.94;4978111;28;20081;-72
2022/11/27 01:50:22;;;;;;;17.40;16.30;;;;;;;10.07;63.38;102254.25;4978411;28;20039;-72
2022/11/27 01:52:52;;;;;;;21.02;19.60;;;;;;;10.07;63.38;102245.34;4978354;28;20038;-72
2022/11/27 01:55:31;;;;;;;17.55;16.45;;;;;;;10.05;63.43;102232.03;4978080;28;20027;-72
2022/11/27 01:58:06;;;;;;;17.30;16.23;;;;;;;10.04;63.44;102224.16;4977705;28;20027;-72
2022/11/27 02:00:32;;;;;;;18.02;16.75;;;;;;;10.03;63.28;102208.97;4978011;28;20501;-75
2022/11/27 02:02:57;;;;;;;18.52;17.15;;;;;;;10.02;63.45;102210.84;4978092;28;20066;-72
2022/11/27 02:05:25;;;;;;;17.73;16.52;;;;;;;10.02;63.60;102208.16;4977568;28;20446;-72
2022/11/27 02:07:51;;;;;;;18.67;17.35;;;;;;;10.01;63.50;102205.66;4977669;28;20027;-72
2022/11/27 02:10:17;;;;;;;18.38;17.27;;;;;;;10.01;63.52;102189.47;4978503;28;20046;-70
2022/11/27 02:13:24;;;;;;;18.60;17.50;;;;;;;10.00;63.54;102185.91;4976469;28;20031;-70
2022/11/27 02:15:55;;;;;;;21.05;19.63;;;;;;;9.99;63.37;102180.75;4920615;29;20043;-74
2022/11/27 02:18:24;;;;;;;18.17;17.08;;;;;;;9.97;63.39;102179.06;4937156;29;20497;-72
2022/11/27 02:21:03;;;;;;;18.88;17.60;;;;;;;9.96;63.22;102174.72;4957949;28;20550;-72
2022/11/27 02:24:02;;;;;;;16.83;15.60;;;;;;;9.96;63.21;102176.56;4976470;28;20394;-71
2022/11/27 02:26:50;;;;;;;17.40;16.30;;;;;;;9.94;63.41;102174.06;4992432;28;20121;-72
2022/11/27 02:29:24;;;;;;;18.10;17.00;;;;;;;9.93;63.29;102169.72;4977355;28;20022;-71
2022/11/27 02:31:55;;;;;;;19.90;18.52;;;;;;;9.93;63.57;102163.50;4992200;28;20027;-70
2022/11/27 02:34:39;;;;;;;17.25;16.05;;;;;;;9.93;63.30;102177.00;4977308;28;20046;-72
2022/11/27 02:37:31;;;;;;;17.52;16.50;;;;;;;9.92;63.36;102162.63;4977363;28;20037;-71
2022/11/27 02:40:10;;;;;;;18.38;17.08;;;;;;;9.91;63.39;102158.28;4977173;28;20030;-73
2022/11/27 02:42:46;;;;;;;19.92;18.63;;;;;;;9.90;63.40;102172.84;4992637;28;20038;-72
2022/11/27 02:45:16;;;;;;;17.13;16.00;;;;;;;9.90;63.37;102169.28;4977743;28;20105;-71
2022/11/27 02:47:44;;;;;;;17.92;16.42;;;;;;;9.90;63.30;102171.97;4976624;28;20035;-71
2022/11/27 02:50:15;;;;;;;16.92;15.45;;;;;;;9.90;63.42;102174.69;4977005;28;20494;-72
2022/11/27 02:52:44;;;;;;;18.27;16.88;;;;;;;9.89;63.33;102176.56;4976982;28;20509;-72
2022/11/27 02:55:14;;;;;;;18.30;17.10;;;;;;;9.89;63.24;102173.03;4976910;28;20076;-72
2022/11/27 02:57:41;;;;;;;19.45;18.33;;;;;;;9.89;63.16;102176.56;4976844;28;20312;-72
2022/11/27 03:00:08;;;;;;;18.60;17.50;;;;;;;9.89;63.57;102173.03;4977176;28;20031;-71
2022/11/27 03:02:40;;;;;;;17.35;16.25;;;;;;;9.89;63.22;102178.41;4991776;28;20063;-71
2022/11/27 03:05:11;;;;;;;17.45;16.23;;;;;;;9.87;63.26;102175.91;4977343;28;20356;-71
2022/11/27 03:07:43;;;;;;;17.48;16.38;;;;;;;9.87;63.58;102169.69;4977335;28;20122;-71
2022/11/27 03:10:26;;;;;;;18.08;16.90;;;;;;;9.88;63.36;102160.56;4976191;28;20356;-72
2022/11/27 03:12:51;;;;;;;19.95;18.55;;;;;;;9.86;63.24;102166.16;4976659;28;20022;-71
2022/11/27 03:15:19;;;;;;;17.75;16.45;;;;;;;9.86;63.21;102166.16;4976587;28;20031;-73
2022/11/27 03:18:37;;;;;;;19.65;18.35;;;;;;;9.86;63.28;102168.88;4976183;28;20040;-72
2022/11/27 03:21:17;;;;;;;19.08;17.98;;;;;;;9.85;63.45;102158.25;4960616;28;20380;-71
2022/11/27 03:23:43;;;;;;;17.10;16.10;;;;;;;9.83;63.32;102155.78;4976337;28;20102;-72
2022/11/27 03:26:08;;;;;;;17.77;16.60;;;;;;;9.83;63.16;102141.47;4976631;28;20121;-72
2022/11/27 03:28:35;;;;;;;18.13;17.05;;;;;;;9.82;63.34;102148.69;4991490;28;20031;-71
2022/11/27 03:31:00;;;;;;;18.67;17.30;;;;;;;9.82;63.13;102137.09;4976495;28;20034;-72
2022/11/27 03:33:26;;;;;;;17.58;16.58;;;;;;;9.82;63.36;102127.13;4976515;28;20054;-71
2022/11/27 03:35:52;;;;;;;18.38;17.27;;;;;;;9.82;63.32;102113.63;4976094;28;20494;-70
2022/11/27 03:38:17;;;;;;;16.70;15.80;;;;;;;9.82;63.25;102110.91;4976175;28;20157;-70
2022/11/27 03:41:05;;;;;;;17.25;16.15;;;;;;;9.83;63.34;102122.56;4976121;28;20487;-71
2022/11/27 03:43:40;;;;;;;15.82;14.93;;;;;;;9.82;63.33;102134.38;4976321;28;20038;-73
2022/11/27 03:46:16;;;;;;;16.20;15.25;;;;;;;9.81;63.11;102128.16;4976174;28;20055;-73
2022/11/27 03:48:57;;;;;;;17.30;16.30;;;;;;;9.81;63.21;102140.84;4976111;28;20042;-71
2022/11/27 03:51:33;;;;;;;17.88;16.63;;;;;;;9.80;63.21;102150.75;4975831;28;20113;-71
2022/11/27 03:54:09;;;;;;;17.70;16.50;;;;;;;9.79;63.24;102146.41;4976166;28;20110;-72
2022/11/27 03:56:38;;;;;;;18.30;17.25;;;;;;;9.79;63.27;102157.22;4975910;28;20490;-71
2022/11/27 03:59:16;;;;;;;18.05;16.88;;;;;;;9.79;63.44;102151.00;4975717;28;20045;-72
2022/11/27 04:01:42;;;;;;;16.60;15.60;;;;;;;9.80;63.10;102158.03;4975965;28;20027;-70
2022/11/27 04:04:08;;;;;;;16.10;15.13;;;;;;;9.79;63.05;102159.09;4990542;28;20027;-71
2022/11/27 04:06:33;;;;;;;15.85;15.05;;;;;;;9.79;63.36;102153.69;4975645;28;20030;-71
2022/11/27 04:08:59;;;;;;;19.08;17.77;;;;;;;9.79;63.30;102161.78;4974629;28;20123;-72
2022/11/27 04:11:24;;;;;;;18.23;17.05;;;;;;;9.78;63.29;102160.09;4974341;28;20054;-71
2022/11/27 04:13:51;;;;;;;17.88;16.65;;;;;;;9.78;63.10;102155.56;4973883;28;20074;-73
2022/11/27 04:16:17;;;;;;;17.98;16.88;;;;;;;9.77;63.13;102153.06;4990423;28;20031;-72
2022/11/27 04:18:42;;;;;;;17.63;16.52;;;;;;;9.77;63.28;102148.47;4974249;28;20478;-71
2022/11/27 04:21:07;;;;;;;17.92;16.60;;;;;;;9.77;63.31;102143.09;4976138;28;20117;-71
2022/11/27 04:23:33;;;;;;;17.55;16.45;;;;;;;9.77;63.35;102136.88;4975442;28;20030;-72
2022/11/27 04:25:58;;;;;;;18.60;17.30;;;;;;;9.77;63.21;102136.88;4975184;28;20038;-72
2022/11/27 04:28:23;;;;;;;17.40;16.10;;;;;;;9.77;63.49;102128.75;4975149;28;20027;-72
2022/11/27 04:30:53;;;;;;;19.15;17.67;;;;;;;9.77;63.08;102131.47;4975170;28;20041;-73
2022/11/27 04:33:19;;;;;;;18.17;17.17;;;;;;;9.76;63.30;102130.63;4974020;28;20031;-72
2022/11/27 04:35:44;;;;;;;18.17;17.08;;;;;;;9.75;63.24;102124.41;4975190;28;20034;-73
2022/11/27 04:38:10;;;;;;;17.95;16.88;;;;;;;9.76;63.27;102130.63;4989798;28;20035;-72
2022/11/27 04:40:35;;;;;;;17.17;15.85;;;;;;;9.75;63.28;102129.81;4975034;28;20038;-72
2022/11/27 04:43:00;;;;;;;19.52;17.92;;;;;;;9.75;63.22;102119.03;4989875;28;20031;-72
2022/11/27 04:45:26;;;;;;;17.50;16.50;;;;;;;9.75;63.05;102116.31;4974992;28;20106;-73
2022/11/27 04:47:51;;;;;;;17.58;16.52;;;;;;;9.75;63.29;102113.63;4975461;28;20042;-71
2022/11/27 04:50:17;;;;;;;16.73;15.73;;;;;;;9.74;63.04;102114.63;4989822;28;20093;-72
2022/11/27 04:52:42;;;;;;;18.13;17.02;;;;;;;9.74;63.17;102130.84;4974884;28;20110;-72
2022/11/27 04:55:08;;;;;;;20.80;19.15;;;;;;;9.74;63.05;102122.72;4974756;28;20494;-72
2022/11/27 04:57:33;;;;;;;18.80;17.70;;;;;;;9.75;63.22;102126.25;4975053;28;20035;-72
2022/11/27 04:59:59;;;;;;;18.90;17.30;;;;;;;9.74;63.05;102124.59;4974697;28;20039;-72
2022/11/27 05:02:24;;;;;;;18.42;17.42;;;;;;;9.74;63.15;102109.25;4973854;28;20353;-72
2022/11/27 05:04:49;;;;;;;17.45;16.35;;;;;;;9.74;63.26;102111.13;4974773;28;20127;-72
2022/11/27 05:07:15;;;;;;;17.70;16.45;;;;;;;9.73;63.22;102106.78;4990100;28;20035;-70
2022/11/27 05:09:40;;;;;;;17.25;16.05;;;;;;;9.73;63.22;102096.81;4974625;28;20027;-71
2022/11/27 05:12:06;;;;;;;18.08;16.88;;;;;;;9.73;63.18;102099.50;4974909;28;20518;-72
2022/11/27 05:14:31;;;;;;;18.42;17.23;;;;;;;9.73;63.45;102093.28;4990079;28;20034;-72
2022/11/27 05:16:58;;;;;;;18.75;17.52;;;;;;;9.73;63.15;102101.38;4974888;28;20507;-71
2022/11/27 05:19:25;;;;;;;16.35;15.45;;;;;;;9.72;63.23;102100.50;4974580;28;20035;-72
2022/11/27 05:21:51;;;;;;;17.75;16.67;;;;;;;9.73;63.16;102095.97;4974898;28;20118;-72
2022/11/27 05:24:19;;;;;;;18.02;16.92;;;;;;;9.72;63.35;102092.41;4975037;28;20030;-71
2022/11/27 05:26:45;;;;;;;18.05;16.48;;;;;;;9.72;63.17;102086.19;4974516;28;20035;-72
2022/11/27 05:29:11;;;;;;;19.38;18.15;;;;;;;9.72;63.24;102080.81;4974082;28;20092;-72
2022/11/27 05:31:37;;;;;;;18.40;17.40;;;;;;;9.72;63.15;102078.09;4974023;28;20031;-73
2022/11/27 05:34:03;;;;;;;18.75;17.42;;;;;;;9.72;63.35;102073.53;4974944;28;20038;-72
2022/11/27 05:36:30;;;;;;;18.48;17.38;;;;;;;9.72;63.15;102075.41;4974163;28;20498;-71
2022/11/27 05:38:55;;;;;;;19.25;18.10;;;;;;;9.72;63.08;102076.22;4989672;28;20378;-74
2022/11/27 05:41:21;;;;;;;17.33;16.23;;;;;;;9.72;63.26;102067.31;4974702;28;20113;-72
2022/11/27 05:43:47;;;;;;;17.25;16.15;;;;;;;9.72;63.25;102065.44;4974424;28;20045;-71
2022/11/27 05:46:17;;;;;;;18.65;17.27;;;;;;;9.71;63.36;102058.41;4956773;28;20050;-72
2022/11/27 05:48:42;;;;;;;16.73;15.73;;;;;;;9.72;63.19;102061.91;4974136;28;20129;-72
2022/11/27 05:51:08;;;;;;;21.00;19.52;;;;;;;9.72;63.12;102051.13;4974187;28;20109;-71
2022/11/27 05:53:34;;;;;;;16.45;15.52;;;;;;;9.71;63.21;102050.28;4974040;28;20034;-71
2022/11/27 05:56:08;;;;;;;18.15;16.75;;;;;;;9.72;63.11;102048.41;4974746;28;20035;-71
2022/11/27 05:58:34;;;;;;;17.95;16.92;;;;;;;9.71;63.29;102042.19;4974610;28;20030;-71
2022/11/27 06:01:00;;;;;;;16.88;15.85;;;;;;;9.71;63.25;102049.47;4974183;28;20077;-70
2022/11/27 06:03:26;;;;;;;18.67;17.48;;;;;;;9.71;63.11;102044.91;4973771;28;20027;-71
2022/11/27 06:05:52;;;;;;;17.55;16.50;;;;;;;9.71;63.29;102049.47;4973086;28;20094;-70
2022/11/27 06:08:18;;;;;;;19.42;18.20;;;;;;;9.71;63.15;102049.47;4974141;28;20118;-71
2022/11/27 06:10:44;;;;;;;16.60;15.60;;;;;;;9.70;63.34;102045.09;4974097;28;20031;-72
2022/11/27 06:13:09;;;;;;;18.52;17.30;;;;;;;9.70;63.28;102037.84;4974475;28;20109;-70
2022/11/27 06:15:36;;;;;;;16.75;15.70;;;;;;;9.70;63.13;102037.84;4977356;28;20069;-75
2022/11/27 06:18:01;;;;;;;17.60;16.38;;;;;;;9.70;62.96;102039.69;4977898;28;20493;-72
2022/11/27 06:20:27;;;;;;;18.10;16.83;;;;;;;9.71;63.10;102033.28;4977641;28;20034;-73
2022/11/27 06:22:52;;;;;;;17.48;16.38;;;;;;;9.71;63.23;102033.28;4992880;28;20122;-71
2022/11/27 06:25:17;;;;;;;20.73;19.00;;;;;;;9.71;63.28;102030.59;4977750;28;20054;-71
2022/11/27 06:27:43;;;;;;;17.50;16.40;;;;;;;9.71;63.46;102031.41;4977394;28;20037;-72
2022/11/27 06:30:09;;;;;;;20.58;19.10;;;;;;;9.70;63.22;102027.06;4977041;28;20078;-71
2022/11/27 06:32:34;;;;;;;17.60;16.50;;;;;;;9.70;63.44;102034.31;4977600;28;20042;-71
2022/11/27 06:35:00;;;;;;;17.50;16.35;;;;;;;9.70;62.85;102032.47;4977309;28;20035;-72
2022/11/27 06:37:25;;;;;;;17.85;16.40;;;;;;;9.70;63.28;102028.91;4976966;28;20468;-72
2022/11/27 06:39:51;;;;;;;16.70;15.50;;;;;;;9.71;63.28;102022.50;4977521;28;20117;-73
2022/11/27 06:42:17;;;;;;;19.33;18.13;;;;;;;9.70;63.17;102027.06;4977114;28;20035;-70
2022/11/27 06:44:42;;;;;;;18.23;17.13;;;;;;;9.71;63.27;102017.09;4977163;28;20470;-72
2022/11/27 06:47:08;;;;;;;19.25;17.95;;;;;;;9.71;63.27;102006.31;4991636;28;20059;-71
2022/11/27 06:49:34;;;;;;;16.95;15.88;;;;;;;9.70;63.27;102010.88;4976960;28;20042;-72
2022/11/27 06:52:00;;;;;;;17.73;16.33;;;;;;;9.70;63.41;102007.31;4977041;28;20478;-72
2022/11/27 06:54:25;;;;;;;18.42;16.98;;;;;;;9.70;63.23;102001.94;4992007;28;20046;-73
2022/11/27 06:56:51;;;;;;;16.88;15.98;;;;;;;9.70;63.28;101993.81;4976943;28;20045;-71
2022/11/27 06:59:17;;;;;;;18.50;17.25;;;;;;;9.70;63.18;101985.75;4977139;28;20042;-71
2022/11/27 07:01:43;;;;;;;16.83;15.65;;;;;;;9.70;63.41;101994.69;4975741;28;20058;-71
2022/11/27 07:04:14;;;;;;;18.45;17.17;;;;;;;9.69;63.12;101984.91;4977508;28;20371;-71
2022/11/27 07:06:40;;;;;;;17.42;16.48;;;;;;;9.69;63.20;101986.78;4976559;28;20035;-70
2022/11/27 07:09:06;;;;;;;18.50;17.25;;;;;;;9.69;63.45;101979.50;4976309;28;20042;-72
2022/11/27 07:11:33;;;;;;;18.20;17.15;;;;;;;9.70;63.33;101972.25;4976406;28;20030;-71
2022/11/27 07:14:01;;;;;;;16.60;15.60;;;;;;;9.69;63.42;101976.00;4976342;28;20387;-70
2022/11/27 07:16:29;;;;;;;17.60;16.40;;;;;;;9.69;63.27;101960.63;4976595;28;20034;-71
2022/11/27 07:18:58;;;;;;;16.77;15.80;;;;;;;9.70;63.33;101961.44;4976832;28;20031;-72
2022/11/27 07:21:24;;;;;;;18.33;17.02;;;;;;;9.69;63.34;101957.09;4976173;28;20034;-73
2022/11/27 07:23:49;;;;;;;17.23;16.13;;;;;;;9.70;63.20;101950.66;4975313;28;20479;-72
2022/11/27 07:26:19;;;;;;;18.67;17.20;;;;;;;9.69;63.23;101952.53;4976057;28;20164;-72
2022/11/27 07:28:45;;;;;;;17.40;16.40;;;;;;;9.69;63.22;101952.53;4975978;28;20027;-70
2022/11/27 07:31:13;;;;;;;17.90;16.85;;;;;;;9.68;63.13;101948.19;4975954;28;20042;-70
2022/11/27 07:33:39;;;;;;;17.88;16.50;;;;;;;9.69;63.29;101944.44;4991994;28;20027;-72
2022/11/27 07:36:25;;;;;;;17.85;16.77;;;;;;;9.69;63.02;101949.00;4975982;28;20033;-73
2022/11/27 07:38:51;;;;;;;18.35;17.02;;;;;;;9.70;63.22;101950.66;4975909;28;20051;-71
2022/11/27 07:41:17;;;;;;;19.35;18.05;;;;;;;9.69;63.47;101933.66;4976105;28;20386;-70
2022/11/27 07:43:44;;;;;;;17.80;16.70;;;;;;;9.69;63.11;101935.53;4976128;28;20038;-71
2022/11/27 07:46:19;;;;;;;18.33;17.23;;;;;;;9.69;63.27;101928.25;4975603;28;20109;-71
2022/11/27 07:48:44;;;;;;;17.08;15.70;;;;;;;9.69;63.19;101930.13;4990800;28;20026;-73
2022/11/27 07:51:11;;;;;;;16.58;15.50;;;;;;;9.69;63.36;101928.25;4975893;28;20475;-71
2022/11/27 07:53:41;;;;;;;18.20;17.20;;;;;;;9.68;63.28;101929.31;4975684;28;20035;-70
2022/11/27 07:56:10;;;;;;;20.00;18.48;;;;;;;9.67;63.26;101932.19;4975906;28;20097;-71
2022/11/27 07:58:36;;;;;;;17.15;16.00;;;;;;;9.68;63.31;101936.56;4974181;28;20031;-72
2022/11/27 08:01:06;;;;;;;16.15;15.20;;;;;;;9.67;63.31;101943.81;4976234;28;20039;-72
2022/11/27 08:03:32;;;;;;;17.50;16.40;;;;;;;9.67;63.21;101938.41;4975898;28;20156;-71
2022/11/27 08:05:57;;;;;;;18.65;17.55;;;;;;;9.68;63.31;101932.00;4975620;28;20472;-70
2022/11/27 08:08:22;;;;;;;20.33;18.92;;;;;;;9.68;63.16;101929.31;4975783;28;20031;-71
2022/11/27 08:10:48;;;;;;;17.73;16.52;;;;;;;9.67;63.34;101924.94;4973999;28;20047;-71
2022/11/27 08:13:13;;;;;;;18.42;17.20;;;;;;;9.69;63.36;101922.84;4974213;28;20031;-71
2022/11/27 08:15:38;;;;;;;17.15;16.13;;;;;;;9.67;63.52;101922.22;4991215;28;20026;-70
2022/11/27 08:18:04;;;;;;;18.02;16.77;;;;;;;9.68;63.43;101923.91;4975158;28;20174;-71
2022/11/27 08:20:29;;;;;;;19.55;18.25;;;;;;;9.68;63.57;101918.50;4975195;28;20043;-71
2022/11/27 08:22:55;;;;;;;18.05;16.85;;;;;;;9.67;63.47;101922.22;4973960;28;20501;-71
2022/11/27 08:25:20;;;;;;;19.20;17.90;;;;;;;9.68;63.52;101929.31;4990187;28;20368;-72
2022/11/27 08:27:47;;;;;;;18.58;17.45;;;;;;;9.68;63.28;101920.38;4990027;28;20058;-72
2022/11/27 08:30:13;;;;;;;16.88;15.88;;;;;;;9.67;63.31;101927.63;4974932;28;20041;-76
2022/11/27 08:32:40;;;;;;;18.50;17.20;;;;;;;9.67;63.38;101924.94;4974067;28;20356;-70
2022/11/27 08:35:06;;;;;;;16.40;15.40;;;;;;;9.68;63.36;101925.78;4974785;28;20039;-70
2022/11/27 08:37:31;;;;;;;19.50;18.02;;;;;;;9.67;63.31;101927.63;4975188;28;20031;-70
2022/11/27 08:39:57;;;;;;;18.90;17.33;;;;;;;9.67;63.45;101927.63;4974952;28;20065;-70
2022/11/27 08:42:22;;;;;;;18.65;17.38;;;;;;;9.67;63.61;101916.00;4974855;28;20059;-69
2022/11/27 08:44:47;;;;;;;16.60;15.65;;;;;;;9.67;63.39;101922.22;4973766;28;20034;-69
2022/11/27 08:47:14;;;;;;;18.08;16.92;;;;;;;9.67;63.32;101914.13;4975181;28;20051;-70
2022/11/27 08:49:39;;;;;;;18.92;17.42;;;;;;;9.67;63.26;101924.09;4989609;28;20090;-70
2022/11/27 08:52:05;;;;;;;17.30;16.25;;;;;;;9.68;63.28;101923.09;4975347;28;20039;-69
2022/11/27 08:54:30;;;;;;;19.60;18.08;;;;;;;9.68;63.39;101921.22;4974689;28;20037;-71
2022/11/27 08:56:55;;;;;;;19.45;18.05;;;;;;;9.68;63.29;101918.50;4973480;28;20065;-71
2022/11/27 08:59:21;;;;;;;18.80;17.50;;;;;;;9.68;63.46;101923.09;4974409;28;20368;-71
2022/11/27 09:01:46;;;;;;;18.33;17.13;;;;;;;9.68;63.30;101917.69;4974269;28;20030;-71
2022/11/27 09:04:11;;;;;;;17.98;16.92;;;;;;;9.69;63.33;101913.94;4974535;28;20452;-71
2022/11/27 09:06:39;;;;;;;17.52;16.42;;;;;;;9.69;63.39;101917.47;4973216;28;20046;-71
2022/11/27 09:09:05;;;;;;;17.88;16.85;;;;;;;9.69;63.21;101914.75;4974156;28;20073;-70
2022/11/27 09:11:32;;;;;;;19.52;18.23;;;;;;;9.69;63.50;101914.75;4974941;28;20467;-70
2022/11/27 09:14:01;;;;;;;18.42;17.23;;;;;;;9.70;63.38;101916.44;4975056;28;20058;-71
2022/11/27 09:16:29;;;;;;;19.13;17.88;;;;;;;9.71;63.52;101923.50;4974650;28;20037;-72
2022/11/27 09:18:54;;;;;;;17.77;16.77;;;;;;;9.70;63.22;101921.84;4974789;28;20035;-71
2022/11/27 09:21:22;;;;;;;18.33;17.10;;;;;;;9.70;63.32;101913.75;4974414;28;20382;-70
2022/11/27 09:23:51;;;;;;;17.42;15.95;;;;;;;9.71;63.32;101917.25;4974452;28;20110;-71
2022/11/27 09:26:17;;;;;;;18.30;17.02;;;;;;;9.72;63.49;101916.22;4972876;28;20097;-70
2022/11/27 09:28:43;;;;;;;17.73;16.58;;;;;;;9.72;63.44;101916.22;4989201;28;20063;-70
2022/11/27 09:31:12;;;;;;;17.80;16.60;;;;;;;9.72;63.34;101906.25;4974608;28;20042;-70
2022/11/27 09:33:38;;;;;;;18.38;17.27;;;;;;;9.72;63.44;101908.13;4974223;28;20050;-70
2022/11/27 09:36:06;;;;;;;18.45;17.25;;;;;;;9.72;63.13;101900.03;4974688;28;20042;-71
2022/11/27 09:38:33;;;;;;;18.30;17.00;;;;;;;9.72;63.41;101908.13;4972981;28;20113;-70
2022/11/27 09:41:14;;;;;;;18.65;17.55;;;;;;;9.72;63.41;101900.84;4974377;28;20074;-71
2022/11/27 09:43:50;;;;;;;18.55;17.02;;;;;;;9.73;63.51;101901.69;4989931;28;20023;-70
2022/11/27 09:46:35;;;;;;;18.60;17.38;;;;;;;9.72;63.34;101903.53;4974678;28;20047;-72
2022/11/27 09:49:05;;;;;;;18.20;16.90;;;;;;;9.71;63.36;101898.38;4977077;28;20177;-72
2022/11/27 09:51:32;;;;;;;18.38;17.17;;;;;;;9.71;63.25;101896.50;4977896;28;20502;-74
2022/11/27 09:54:12;;;;;;;19.60;18.20;;;;;;;9.69;63.43;101884.25;4992989;28;20031;-72
2022/11/27 09:56:39;;;;;;;20.42;18.85;;;;;;;9.69;63.41;101871.59;4976954;28;20031;-72
2022/11/27 09:59:14;;;;;;;18.73;17.42;;;;;;;9.70;63.42;101878.66;4978212;28;20034;-71
2022/11/27 10:01:40;;;;;;;20.55;18.92;;;;;;;9.70;63.45;101886.75;4978120;28;20034;-71
2022/11/27 10:04:10;;;;;;;18.98;17.77;;;;;;;9.69;63.38;101866.19;4977894;28;20050;-70
2022/11/27 10:07:14;;;;;;;18.80;17.38;;;;;;;9.70;63.66;101864.31;4978529;28;20170;-70
2022/11/27 10:09:59;;;;;;;19.25;17.85;;;;;;;9.68;63.40;101855.63;4976352;28;20106;-71
2022/11/27 10:12:49;;;;;;;19.05;17.98;;;;;;;9.68;63.69;101844.84;4976443;28;20031;-73
2022/11/27 10:15:30;;;;;;;17.38;16.08;;;;;;;9.66;63.38;101845.03;4977328;28;20038;-74
2022/11/27 10:18:13;;;;;;;18.58;17.35;;;;;;;9.68;63.38;101844.84;4977881;28;20023;-71
2022/11/27 10:20:47;;;;;;;19.50;18.10;;;;;;;9.69;63.34;101841.09;4993120;28;20027;-72
2022/11/27 10:23:31;;;;;;;18.13;16.95;;;;;;;9.69;63.45;101838.41;4977892;28;20042;-71
2022/11/27 10:26:18;;;;;;;19.38;18.17;;;;;;;9.67;63.56;101838.59;4977902;28;20027;-71
2022/11/27 10:29:01;;;;;;;20.88;19.20;;;;;;;9.68;63.65;101829.47;4977083;28;20027;-72
2022/11/27 10:31:56;;;;;;;18.85;17.65;;;;;;;9.68;63.57;101832.19;4977141;28;20415;-73
2022/11/27 10:34:39;;;;;;;17.77;16.67;;;;;;;9.69;63.55;101833.00;4975874;28;20035;-71
2022/11/27 10:37:13;;;;;;;19.63;18.25;;;;;;;9.70;63.63;101823.84;4992584;28;20118;-70
2022/11/27 10:39:47;;;;;;;19.48;18.10;;;;;;;9.70;63.43;101821.16;4977295;28;20035;-72
2022/11/27 10:42:23;;;;;;;18.00;16.92;;;;;;;9.71;63.51;101818.25;4976073;28;20027;-74
2022/11/27 10:44:58;;;;;;;20.02;18.45;;;;;;;9.71;63.51;101818.25;4976233;28;20496;-71
2022/11/27 10:47:26;;;;;;;18.52;17.35;;;;;;;9.72;63.56;101825.31;4977200;28;20042;-71
2022/11/27 10:49:51;;;;;;;20.95;19.42;;;;;;;9.74;63.36;101819.72;4975789;28;20034;-70
2022/11/27 10:52:18;;;;;;;18.95;17.70;;;;;;;9.74;63.46;101817.84;4976436;28;20403;-74
2022/11/27 10:54:49;;;;;;;21.65;19.75;;;;;;;9.75;63.61;101813.25;4975312;28;20027;-70
2022/11/27 10:57:41;;;;;;;17.52;16.48;;;;;;;9.75;63.44;101808.72;4977024;28;20106;-73
2022/11/27 11:00:23;;;;;;;18.42;17.08;;;;;;;9.75;63.62;101800.63;4976364;28;20030;-70
2022/11/27 11:03:02;;;;;;;20.05;18.35;;;;;;;9.77;63.59;101794.16;4976924;28;20128;-72
2022/11/27 11:05:29;;;;;;;18.42;17.33;;;;;;;9.77;63.45;101777.97;4991405;28;20077;-71
2022/11/27 11:08:03;;;;;;;19.95;18.38;;;;;;;9.78;63.74;101779.63;4976778;28;20466;-70
2022/11/27 11:10:30;;;;;;;18.55;17.23;;;;;;;9.78;63.43;101764.28;4976496;28;20031;-71
2022/11/27 11:13:14;;;;;;;19.50;18.23;;;;;;;9.78;63.52;101761.59;4977003;28;20058;-72
2022/11/27 11:15:50;;;;;;;19.40;17.90;;;;;;;9.79;63.51;101760.53;4976354;28;20034;-76
2022/11/27 11:18:21;;;;;;;17.73;16.70;;;;;;;9.79;63.66;101763.25;4976626;28;20038;-70
2022/11/27 11:20:50;;;;;;;21.25;19.10;;;;;;;9.79;63.58;101744.34;4976293;28;20054;-72
2022/11/27 11:23:42;;;;;;;17.85;16.73;;;;;;;9.80;63.68;101756.78;4976255;28;20479;-72
2022/11/27 11:26:19;;;;;;;18.83;17.73;;;;;;;9.82;63.56;101751.19;4959388;28;20046;-72
2022/11/27 11:28:54;;;;;;;20.42;18.83;;;;;;;9.81;63.79;101742.28;4976018;28;20027;-73